Time;durP1;ratioP1;P1;durP2;ratioP2;P2;SDS_P1;SDS_P2;PMS_P1;PMS_P2;Temp;Humidity;BMP_temperature;BMP_pressure;BME280_temperature;BME280_humidity;BME280_pressure;Samples;Min_cycle;Max_cycle;Signal;HPM_P1;HPM_P2
2022/03/03 00:00:15;;;;;;;21.95;15.20;;;8.90;99.90;;;;;;5060786;28;20051;-75
2022/03/03 00:02:41;;;;;;;17.70;13.38;;;8.90;99.90;;;;;;5062521;28;20021;-76
2022/03/03 00:05:08;;;;;;;20.23;13.88;;;8.90;99.90;;;;;;5065010;28;20033;-76
2022/03/03 00:07:34;;;;;;;107.97;45.88;;;8.90;99.90;;;;;;5061321;28;20021;-76
2022/03/03 00:10:01;;;;;;;37.28;22.55;;;8.90;99.90;;;;;;5058387;28;20445;-76
2022/03/03 00:12:27;;;;;;;18.35;13.15;;;8.90;99.90;;;;;;5079819;28;20020;-76
2022/03/03 00:14:53;;;;;;;17.17;12.27;;;8.90;99.90;;;;;;5079793;28;20032;-76
2022/03/03 00:17:19;;;;;;;14.50;10.93;;;8.90;99.90;;;;;;5078596;28;20020;-76
2022/03/03 00:19:45;;;;;;;25.13;13.38;;;8.90;99.90;;;;;;5078942;28;20470;-76
2022/03/03 00:22:11;;;;;;;125.28;52.53;;;8.90;99.90;;;;;;5079187;28;20075;-76
2022/03/03 00:24:37;;;;;;;223.75;87.43;;;8.90;99.90;;;;;;5079496;28;20558;-76
2022/03/03 00:27:04;;;;;;;30.23;16.52;;;8.90;99.90;;;;;;5079291;28;20024;-76
2022/03/03 00:29:30;;;;;;;21.45;12.20;;;8.80;99.90;;;;;;5061228;28;20024;-76
2022/03/03 00:31:56;;;;;;;19.25;13.70;;;8.80;99.90;;;;;;5079170;28;20027;-76
2022/03/03 00:34:22;;;;;;;16.63;12.48;;;8.80;99.90;;;;;;5061213;28;20443;-76
2022/03/03 00:36:48;;;;;;;16.38;12.10;;;8.80;99.90;;;;;;5060873;28;20024;-76
2022/03/03 00:39:14;;;;;;;17.52;12.23;;;8.80;99.90;;;;;;5061012;28;20051;-76
2022/03/03 00:41:40;;;;;;;16.05;11.48;;;8.90;99.90;;;;;;5060833;28;20457;-76
2022/03/03 00:44:06;;;;;;;16.45;12.77;;;8.90;99.90;;;;;;5079197;28;20020;-77
2022/03/03 00:46:33;;;;;;;14.68;12.13;;;8.90;99.90;;;;;;5060890;28;20032;-77
2022/03/03 00:48:59;;;;;;;53.42;34.50;;;8.90;99.90;;;;;;5060926;28;20025;-76
2022/03/03 00:51:25;;;;;;;18.42;14.00;;;8.90;99.90;;;;;;5078652;28;20035;-76
2022/03/03 00:53:51;;;;;;;17.20;13.38;;;8.80;99.90;;;;;;5060856;28;20028;-77
2022/03/03 00:56:18;;;;;;;51.40;31.63;;;8.90;99.90;;;;;;5078810;28;20020;-77
2022/03/03 00:58:45;;;;;;;18.52;13.40;;;8.90;99.90;;;;;;5061010;28;20031;-77
2022/03/03 01:01:11;;;;;;;17.20;13.48;;;8.90;99.90;;;;;;5060702;28;20024;-76
2022/03/03 01:03:37;;;;;;;17.98;13.05;;;8.90;99.90;;;;;;5078866;28;20021;-77
2022/03/03 01:06:03;;;;;;;17.73;14.43;;;8.90;99.90;;;;;;5060357;28;20650;-76
2022/03/03 01:08:29;;;;;;;20.02;13.93;;;8.90;99.90;;;;;;5077652;28;20477;-76
2022/03/03 01:10:55;;;;;;;18.23;14.15;;;8.90;99.90;;;;;;5078533;28;20028;-76
2022/03/03 01:13:22;;;;;;;18.35;14.65;;;8.90;99.90;;;;;;5060497;28;20058;-76
2022/03/03 01:15:49;;;;;;;25.15;19.13;;;8.90;99.90;;;;;;5078309;28;20025;-76
2022/03/03 01:18:15;;;;;;;227.52;128.25;;;8.80;99.90;;;;;;5078508;28;20408;-76
2022/03/03 01:20:41;;;;;;;22.38;18.20;;;8.80;99.90;;;;;;5060015;28;20058;-77
2022/03/03 01:23:07;;;;;;;21.80;16.48;;;8.80;99.90;;;;;;5078263;28;20473;-76
2022/03/03 01:25:33;;;;;;;20.63;14.90;;;8.80;99.90;;;;;;5060499;28;20024;-76
2022/03/03 01:27:58;;;;;;;20.33;15.65;;;8.80;99.90;;;;;;5059960;28;20503;-76
2022/03/03 01:30:24;;;;;;;18.73;13.77;;;8.80;99.90;;;;;;5060041;28;20033;-76
2022/03/03 01:32:50;;;;;;;17.95;14.00;;;8.80;99.90;;;;;;5078209;28;20027;-76
2022/03/03 01:35:16;;;;;;;17.83;14.70;;;8.80;99.90;;;;;;5077680;28;20031;-77
2022/03/03 01:37:42;;;;;;;21.90;13.95;;;8.80;99.90;;;;;;5059992;28;20025;-77
2022/03/03 01:40:09;;;;;;;18.50;14.02;;;8.80;99.90;;;;;;5077835;28;20024;-76
2022/03/03 01:42:35;;;;;;;17.30;13.65;;;8.80;99.90;;;;;;5059925;28;20031;-76
2022/03/03 01:45:01;;;;;;;18.60;13.70;;;8.80;99.90;;;;;;5077791;28;20033;-76
2022/03/03 01:47:27;;;;;;;18.48;14.70;;;8.80;99.90;;;;;;5077810;28;20035;-77
2022/03/03 01:49:55;;;;;;;21.30;13.93;;;8.80;99.90;;;;;;5077410;28;20032;-76
2022/03/03 01:52:21;;;;;;;21.60;14.05;;;8.80;99.90;;;;;;5059820;28;20043;-76
2022/03/03 01:54:48;;;;;;;18.52;14.50;;;8.80;99.90;;;;;;5059825;28;20024;-76
2022/03/03 01:57:17;;;;;;;16.65;13.63;;;8.80;99.90;;;;;;5059633;28;20035;-76
2022/03/03 01:59:43;;;;;;;19.30;13.25;;;8.80;99.90;;;;;;5077534;28;20025;-76
2022/03/03 02:02:13;;;;;;;18.00;13.07;;;8.80;99.90;;;;;;5077639;28;20088;-76
2022/03/03 02:04:39;;;;;;;17.15;13.13;;;8.80;99.90;;;;;;5059065;28;20037;-76
2022/03/03 02:07:07;;;;;;;15.15;13.15;;;8.80;99.90;;;;;;5077263;28;20024;-76
2022/03/03 02:09:34;;;;;;;19.10;12.82;;;8.80;99.90;;;;;;5077685;28;20484;-77
2022/03/03 02:12:00;;;;;;;17.98;12.63;;;8.80;99.90;;;;;;5059224;28;20469;-76
2022/03/03 02:14:26;;;;;;;16.10;13.07;;;8.80;99.90;;;;;;5059285;28;20021;-76
2022/03/03 02:16:52;;;;;;;15.45;12.60;;;8.80;99.90;;;;;;5059832;28;20074;-76
2022/03/03 02:19:19;;;;;;;19.70;13.50;;;8.90;99.90;;;;;;5059325;28;20069;-76
2022/03/03 02:21:54;;;;;;;20.80;12.77;;;8.90;99.90;;;;;;5077073;28;20520;-76
2022/03/03 02:24:20;;;;;;;15.10;13.23;;;8.90;99.90;;;;;;5059428;28;20035;-76
2022/03/03 02:26:47;;;;;;;14.35;11.82;;;8.80;99.90;;;;;;5059063;28;20492;-76
2022/03/03 02:29:13;;;;;;;16.40;13.48;;;8.90;99.90;;;;;;5077347;28;20024;-76
2022/03/03 02:31:40;;;;;;;16.40;13.00;;;8.80;99.90;;;;;;5059116;28;20017;-76
2022/03/03 02:34:07;;;;;;;15.75;12.65;;;8.80;99.90;;;;;;5059303;28;20032;-77
2022/03/03 02:36:33;;;;;;;17.83;13.02;;;8.80;99.90;;;;;;5077099;28;20025;-77
2022/03/03 02:39:01;;;;;;;19.08;12.70;;;8.80;99.90;;;;;;5076988;28;20059;-76
2022/03/03 02:41:28;;;;;;;19.20;13.10;;;8.80;99.90;;;;;;5058425;28;20047;-77
2022/03/03 02:43:56;;;;;;;17.27;12.63;;;8.80;99.90;;;;;;5059018;28;20074;-76
2022/03/03 02:46:22;;;;;;;18.80;13.15;;;8.80;99.90;;;;;;5077317;28;20386;-76
2022/03/03 02:48:48;;;;;;;20.73;13.18;;;8.80;99.90;;;;;;5077507;28;20469;-76
2022/03/03 02:51:14;;;;;;;15.23;12.77;;;8.80;99.90;;;;;;5076642;28;20430;-77
2022/03/03 02:53:40;;;;;;;15.27;11.80;;;8.80;99.90;;;;;;5058997;28;20028;-77
2022/03/03 02:56:07;;;;;;;17.08;13.02;;;8.80;99.90;;;;;;5076894;28;20028;-77
2022/03/03 02:58:33;;;;;;;19.95;12.35;;;8.80;99.90;;;;;;5059122;28;20029;-76
2022/03/03 03:01:01;;;;;;;15.73;12.82;;;8.80;99.90;;;;;;5076839;28;20029;-76
2022/03/03 03:03:26;;;;;;;13.30;11.45;;;8.80;99.90;;;;;;5058958;28;20033;-76
2022/03/03 03:05:52;;;;;;;17.95;13.02;;;8.90;99.90;;;;;;5076539;28;20031;-77
2022/03/03 03:08:18;;;;;;;17.52;13.25;;;8.90;99.90;;;;;;5058802;28;20030;-76
2022/03/03 03:10:44;;;;;;;20.52;13.90;;;8.80;99.90;;;;;;5076707;28;20031;-76
2022/03/03 03:13:12;;;;;;;18.73;13.20;;;8.70;99.90;;;;;;5058745;28;20020;-77
2022/03/03 03:15:39;;;;;;;17.60;12.88;;;8.70;99.90;;;;;;5058699;28;20017;-77
2022/03/03 03:18:17;;;;;;;19.42;14.98;;;8.70;99.90;;;;;;5058880;28;20052;-77
2022/03/03 03:20:44;;;;;;;15.63;12.32;;;8.60;99.90;;;;;;5058294;28;20021;-77
2022/03/03 03:23:12;;;;;;;18.35;13.45;;;8.60;99.90;;;;;;5058731;28;20020;-77
2022/03/03 03:25:39;;;;;;;19.13;12.48;;;8.60;99.90;;;;;;5076618;28;20028;-76
2022/03/03 03:28:06;;;;;;;15.65;12.98;;;8.60;99.90;;;;;;5076581;28;20025;-76
2022/03/03 03:30:32;;;;;;;20.77;13.15;;;8.60;99.90;;;;;;5058466;28;20447;-76
2022/03/03 03:32:58;;;;;;;17.25;13.73;;;8.60;99.90;;;;;;5058674;28;20025;-76
2022/03/03 03:35:24;;;;;;;16.40;13.45;;;8.60;99.90;;;;;;5058273;28;20024;-77
2022/03/03 03:37:51;;;;;;;20.15;13.43;;;8.60;99.90;;;;;;5058548;28;20032;-77
2022/03/03 03:40:17;;;;;;;20.42;13.57;;;8.60;99.90;;;;;;5058699;28;20028;-77
2022/03/03 03:42:43;;;;;;;17.20;12.70;;;8.60;99.90;;;;;;5058505;28;20024;-77
2022/03/03 03:45:10;;;;;;;14.90;12.95;;;8.60;99.90;;;;;;5076691;28;20029;-77
2022/03/03 03:47:38;;;;;;;19.20;12.95;;;8.50;99.90;;;;;;5058420;28;20029;-77
2022/03/03 03:50:08;;;;;;;17.13;11.88;;;8.40;99.90;;;;;;5076114;28;20025;-77
2022/03/03 03:52:38;;;;;;;16.30;12.37;;;8.40;99.90;;;;;;5077717;28;20392;-76
2022/03/03 03:55:05;;;;;;;17.20;11.37;;;8.30;99.90;;;;;;5079978;28;20021;-76
2022/03/03 03:57:31;;;;;;;18.67;12.02;;;8.10;99.90;;;;;;5061858;28;20031;-77
2022/03/03 03:59:58;;;;;;;17.60;12.73;;;8.10;99.90;;;;;;5079791;28;20032;-76
2022/03/03 04:02:24;;;;;;;18.45;12.15;;;8.00;99.90;;;;;;5080010;28;20082;-76
2022/03/03 04:04:50;;;;;;;15.98;12.85;;;7.90;99.90;;;;;;5061434;28;20256;-76
2022/03/03 04:07:15;;;;;;;23.70;13.57;;;7.70;99.90;;;;;;5078738;28;20024;-76
2022/03/03 04:09:41;;;;;;;17.13;12.98;;;7.70;99.90;;;;;;5079907;28;20150;-77
2022/03/03 04:12:08;;;;;;;17.70;13.48;;;7.60;99.90;;;;;;5062498;28;20415;-76
2022/03/03 04:14:34;;;;;;;17.02;14.27;;;7.60;99.90;;;;;;5061515;28;20031;-76
2022/03/03 04:17:00;;;;;;;20.30;14.45;;;7.60;99.90;;;;;;5079729;28;20397;-77
2022/03/03 04:19:25;;;;;;;23.90;15.43;;;7.60;99.90;;;;;;5079601;28;20503;-77
2022/03/03 04:21:51;;;;;;;24.42;16.73;;;7.60;99.90;;;;;;5061234;28;20052;-77
2022/03/03 04:24:17;;;;;;;22.15;15.93;;;7.60;99.90;;;;;;5061367;28;20078;-77
2022/03/03 04:26:43;;;;;;;21.35;14.43;;;7.60;99.90;;;;;;5079245;28;20062;-77
2022/03/03 04:29:09;;;;;;;17.42;14.07;;;7.60;99.90;;;;;;5079337;28;20044;-77
2022/03/03 04:31:35;;;;;;;20.00;13.90;;;7.50;99.90;;;;;;5079494;28;20020;-77
2022/03/03 04:34:01;;;;;;;21.15;14.13;;;7.40;99.90;;;;;;5079474;28;20029;-77
2022/03/03 04:36:27;;;;;;;19.45;13.77;;;7.30;99.90;;;;;;5060987;28;20028;-77
2022/03/03 04:38:53;;;;;;;20.90;13.40;;;7.30;99.90;;;;;;5061174;28;20059;-76
2022/03/03 04:41:20;;;;;;;19.38;13.45;;;7.20;99.90;;;;;;5079478;28;20108;-76
2022/03/03 04:43:46;;;;;;;19.63;13.63;;;7.10;99.90;;;;;;5061203;28;20100;-76
2022/03/03 04:46:12;;;;;;;21.85;16.15;;;7.10;99.90;;;;;;5079054;28;20508;-76
2022/03/03 04:48:38;;;;;;;26.77;15.93;;;7.00;99.90;;;;;;5061032;28;20504;-76
2022/03/03 04:51:04;;;;;;;21.83;16.15;;;7.00;99.90;;;;;;5078753;28;20044;-77
2022/03/03 04:53:30;;;;;;;21.95;15.65;;;7.00;99.90;;;;;;5061148;28;20035;-77
2022/03/03 04:55:57;;;;;;;20.92;14.27;;;7.00;99.90;;;;;;5078875;28;20021;-77
2022/03/03 04:58:24;;;;;;;19.65;13.52;;;7.00;99.90;;;;;;5078939;28;20028;-77
2022/03/03 05:00:50;;;;;;;18.58;13.50;;;6.90;99.90;;;;;;5078678;28;20485;-76
2022/03/03 05:03:15;;;;;;;18.00;12.68;;;6.80;99.90;;;;;;5078460;28;20183;-77
2022/03/03 05:05:41;;;;;;;19.08;12.10;;;6.80;99.90;;;;;;5060435;28;20056;-76
2022/03/03 05:08:08;;;;;;;27.63;13.85;;;6.70;99.90;;;;;;5060639;28;20032;-76
2022/03/03 05:10:33;;;;;;;26.98;15.98;;;6.70;99.90;;;;;;5078462;28;20042;-76
2022/03/03 05:13:01;;;;;;;26.52;14.80;;;6.70;99.90;;;;;;5078560;28;20392;-76
2022/03/03 05:15:27;;;;;;;24.38;15.02;;;6.70;99.90;;;;;;5060335;28;20443;-77
2022/03/03 05:17:53;;;;;;;24.80;16.30;;;6.70;99.90;;;;;;5060649;28;20029;-76
2022/03/03 05:20:19;;;;;;;22.30;13.82;;;6.60;99.90;;;;;;5077714;28;20111;-76
2022/03/03 05:22:45;;;;;;;22.60;14.10;;;6.60;99.90;;;;;;5060696;28;20063;-76
2022/03/03 05:25:11;;;;;;;24.05;14.80;;;6.50;99.90;;;;;;5078174;28;20029;-76
2022/03/03 05:27:39;;;;;;;20.13;14.52;;;6.40;99.90;;;;;;5077996;28;20025;-76
2022/03/03 05:30:07;;;;;;;19.52;15.18;;;6.40;99.90;;;;;;5060335;28;20040;-76
2022/03/03 05:32:33;;;;;;;20.77;15.10;;;6.40;99.90;;;;;;5077234;28;20079;-76
2022/03/03 05:34:59;;;;;;;31.13;15.57;;;6.40;99.90;;;;;;5059399;28;20013;-76
2022/03/03 05:37:25;;;;;;;20.55;15.45;;;6.40;99.90;;;;;;5060159;28;20039;-77
2022/03/03 05:39:52;;;;;;;25.33;16.38;;;6.40;99.90;;;;;;5059869;28;20053;-76
2022/03/03 05:42:23;;;;;;;28.70;18.17;;;6.40;99.90;;;;;;5059911;28;20511;-76
2022/03/03 05:44:49;;;;;;;;;;;6.50;99.90;;;;;;5078294;28;20484;-76
2022/03/03 05:47:16;;;;;;;29.30;16.60;;;6.50;99.90;;;;;;5059860;28;19909;-77
2022/03/03 05:49:44;;;;;;;23.45;16.15;;;6.40;99.90;;;;;;5059517;28;20052;-76
2022/03/03 05:52:12;;;;;;;35.38;16.05;;;6.40;99.90;;;;;;5059775;28;20063;-76
2022/03/03 05:54:38;;;;;;;24.42;15.88;;;6.50;99.90;;;;;;5077778;28;20028;-76
2022/03/03 05:57:12;;;;;;;29.95;17.83;;;6.50;99.90;;;;;;5077744;28;20374;-76
2022/03/03 05:59:41;;;;;;;25.25;15.88;;;6.70;99.90;;;;;;5077593;28;20032;-76
2022/03/03 06:02:09;;;;;;;28.90;17.50;;;6.70;99.90;;;;;;5077631;28;20563;-76
2022/03/03 06:04:39;;;;;;;27.65;17.58;;;6.80;99.90;;;;;;5059295;28;20036;-76
2022/03/03 06:07:10;;;;;;;22.45;16.75;;;6.80;99.90;;;;;;5059780;28;20034;-76
2022/03/03 06:09:37;;;;;;;22.23;15.57;;;6.80;99.90;;;;;;5059440;28;20036;-77
2022/03/03 06:12:06;;;;;;;22.92;15.57;;;6.80;99.90;;;;;;5059580;28;20032;-77
2022/03/03 06:14:53;;;;;;;18.38;14.05;;;6.80;99.90;;;;;;5076655;28;20066;-77
2022/03/03 06:17:24;;;;;;;17.75;14.50;;;6.90;99.90;;;;;;5059365;28;20070;-76
2022/03/03 06:19:52;;;;;;;19.75;15.95;;;6.90;99.90;;;;;;5077271;28;20219;-76
2022/03/03 06:22:19;;;;;;;23.23;16.45;;;6.90;99.90;;;;;;5059314;28;20081;-77
2022/03/03 06:24:47;;;;;;;24.08;16.75;;;7.00;99.90;;;;;;5059626;28;20039;-76
2022/03/03 06:27:13;;;;;;;24.73;19.00;;;7.00;99.90;;;;;;5076974;28;20043;-77
2022/03/03 06:29:39;;;;;;;23.02;18.05;;;7.00;99.90;;;;;;5059234;28;20048;-77
2022/03/03 06:32:06;;;;;;;28.25;20.70;;;7.10;99.90;;;;;;5077113;28;20388;-77
2022/03/03 06:34:32;;;;;;;28.75;20.88;;;7.20;99.90;;;;;;5059004;28;20485;-76
2022/03/03 06:36:58;;;;;;;28.35;20.52;;;7.20;99.90;;;;;;5059162;28;20074;-76
2022/03/03 06:39:24;;;;;;;25.70;20.10;;;7.30;99.90;;;;;;5076930;28;20048;-77
2022/03/03 06:41:51;;;;;;;25.80;20.02;;;7.40;99.90;;;;;;5058830;28;20111;-77
2022/03/03 06:44:18;;;;;;;23.08;17.52;;;7.40;99.90;;;;;;5077129;28;20051;-77
2022/03/03 06:46:44;;;;;;;26.85;17.55;;;7.50;99.90;;;;;;5077069;28;20070;-77
2022/03/03 06:49:11;;;;;;;25.25;18.23;;;7.50;99.90;;;;;;5077232;28;20093;-77
2022/03/03 06:51:49;;;;;;;24.30;19.05;;;7.60;99.90;;;;;;5076670;28;20021;-77
2022/03/03 06:54:17;;;;;;;24.85;18.05;;;7.60;99.90;;;;;;5058865;28;20024;-76
2022/03/03 06:56:51;;;;;;;23.13;17.40;;;7.60;99.90;;;;;;5050562;28;20385;-77
2022/03/03 06:59:19;;;;;;;24.80;18.15;;;7.70;99.90;;;;;;5076367;28;20451;-76
2022/03/03 07:01:49;;;;;;;28.20;17.95;;;7.70;99.90;;;;;;5076326;28;20020;-77
2022/03/03 07:04:16;;;;;;;22.17;17.85;;;7.70;99.90;;;;;;5058185;28;20400;-77
2022/03/03 07:06:43;;;;;;;26.48;18.08;;;7.80;99.90;;;;;;5073371;28;20039;-77
2022/03/03 07:09:10;;;;;;;24.33;16.60;;;7.80;99.90;;;;;;5058301;28;20044;-77
2022/03/03 07:11:41;;;;;;;20.52;16.40;;;7.90;99.90;;;;;;5058134;28;20374;-77
2022/03/03 07:14:07;;;;;;;22.67;17.50;;;7.90;99.90;;;;;;5076120;28;20016;-77
2022/03/03 07:17:04;;;;;;;25.90;17.08;;;7.90;99.90;;;;;;5076205;28;20500;-77
2022/03/03 07:19:39;;;;;;;20.98;16.08;;;8.00;99.90;;;;;;5073692;28;20538;-77
2022/03/03 07:22:33;;;;;;;21.58;16.23;;;8.00;99.90;;;;;;5062974;28;20032;-77
2022/03/03 07:25:11;;;;;;;21.40;15.90;;;8.10;99.90;;;;;;5076103;28;20020;-77
2022/03/03 07:27:45;;;;;;;22.98;16.70;;;8.10;99.90;;;;;;5060744;28;20032;-76
2022/03/03 07:30:15;;;;;;;21.95;16.08;;;8.10;99.90;;;;;;5080063;28;20055;-76
2022/03/03 07:32:54;;;;;;;19.30;16.10;;;8.10;99.90;;;;;;5079589;28;20103;-76
2022/03/03 07:35:25;;;;;;;22.25;16.13;;;8.20;99.90;;;;;;5079779;28;20024;-75
2022/03/03 07:37:58;;;;;;;;;;;8.30;99.90;;;;;;5062733;28;20034;-76
2022/03/03 07:40:27;;;;;;;62.47;33.90;;;8.40;99.90;;;;;;5062643;28;19912;-76
2022/03/03 07:42:57;;;;;;;318.15;133.57;;;8.40;99.90;;;;;;5062212;28;20028;-75
2022/03/03 07:45:24;;;;;;;32.95;25.88;;;8.40;99.90;;;;;;5080403;28;20085;-75
2022/03/03 07:47:54;;;;;;;36.15;29.13;;;8.40;99.90;;;;;;5080118;28;20391;-75
2022/03/03 07:50:20;;;;;;;343.63;234.60;;;8.40;99.90;;;;;;5061782;28;20127;-75
2022/03/03 07:52:49;;;;;;;90.35;61.65;;;8.50;99.90;;;;;;5080059;28;20021;-75
2022/03/03 07:55:15;;;;;;;45.13;34.67;;;8.50;99.90;;;;;;5062414;28;20028;-75
2022/03/03 07:57:54;;;;;;;30.13;24.17;;;8.50;99.90;;;;;;5062128;28;20031;-75
2022/03/03 08:00:20;;;;;;;48.50;36.78;;;8.60;99.90;;;;;;5059111;28;20078;-75
2022/03/03 08:02:50;;;;;;;188.02;111.05;;;8.60;99.90;;;;;;5061666;28;20028;-76
2022/03/03 08:05:16;;;;;;;69.30;45.42;;;8.60;99.90;;;;;;5078384;28;20099;-76
2022/03/03 08:07:45;;;;;;;79.55;47.05;;;8.60;99.90;;;;;;5061782;28;20021;-76
2022/03/03 08:10:13;;;;;;;25.40;19.40;;;8.70;99.90;;;;;;5050920;28;20032;-76
2022/03/03 08:12:40;;;;;;;25.77;17.58;;;8.70;99.90;;;;;;5076201;28;20017;-75
2022/03/03 08:15:08;;;;;;;26.33;16.40;;;8.80;99.90;;;;;;5061519;28;20028;-75
2022/03/03 08:17:34;;;;;;;28.40;19.58;;;8.90;99.90;;;;;;5073592;28;20497;-75
2022/03/03 08:20:06;;;;;;;93.63;50.33;;;9.00;99.90;;;;;;5077717;28;20103;-76
2022/03/03 08:22:33;;;;;;;158.80;81.72;;;9.10;99.90;;;;;;5079503;28;20103;-76
2022/03/03 08:24:59;;;;;;;29.85;20.38;;;9.20;99.90;;;;;;5061423;28;20518;-76
2022/03/03 08:27:27;;;;;;;21.65;15.90;;;9.30;99.90;;;;;;5079035;28;20456;-76
2022/03/03 08:29:54;;;;;;;26.10;17.60;;;9.40;99.90;;;;;;5079091;28;20024;-77
2022/03/03 08:32:22;;;;;;;31.25;20.73;;;9.50;99.90;;;;;;5060906;28;20020;-77
2022/03/03 08:35:15;;;;;;;23.38;15.05;;;9.60;99.90;;;;;;5079053;28;20031;-77
2022/03/03 08:37:45;;;;;;;15.63;12.25;;;9.80;99.90;;;;;;5068324;28;20419;-77
2022/03/03 08:40:13;;;;;;;16.27;12.45;;;9.80;99.90;;;;;;5078342;28;20029;-76
2022/03/03 08:42:45;;;;;;;23.40;13.70;;;9.90;99.90;;;;;;5060509;28;20020;-76
2022/03/03 08:45:12;;;;;;;15.35;11.63;;;10.00;99.90;;;;;;5078269;28;20016;-76
2022/03/03 08:47:39;;;;;;;23.52;14.15;;;10.00;99.90;;;;;;5078268;28;20416;-76
2022/03/03 08:50:13;;;;;;;65.95;32.15;;;10.10;99.90;;;;;;5078049;28;20024;-76
2022/03/03 08:52:41;;;;;;;137.45;65.13;;;10.20;99.90;;;;;;5060776;28;20020;-76
2022/03/03 08:55:11;;;;;;;147.35;67.05;;;10.40;99.90;;;;;;5078507;28;20505;-76
2022/03/03 08:57:38;;;;;;;17.70;11.65;;;10.50;99.90;;;;;;5077026;28;20056;-76
2022/03/03 09:00:07;;;;;;;15.57;11.52;;;10.60;99.90;;;;;;5078060;28;20059;-76
2022/03/03 09:02:33;;;;;;;1051.78;422.58;;;10.70;99.90;;;;;;5059175;28;20025;-76
2022/03/03 09:04:59;;;;;;;41.20;15.43;;;10.70;99.90;;;;;;5060289;28;20029;-75
2022/03/03 09:07:25;;;;;;;15.50;10.52;;;10.80;99.90;;;;;;5060550;28;20035;-75
2022/03/03 09:09:51;;;;;;;18.50;9.55;;;10.90;99.90;;;;;;5060359;28;20020;-76
2022/03/03 09:12:17;;;;;;;15.77;9.48;;;11.00;99.90;;;;;;5060345;28;20029;-76
2022/03/03 09:14:42;;;;;;;11.70;7.03;;;11.20;99.90;;;;;;5078629;28;20029;-76
2022/03/03 09:17:08;;;;;;;17.25;12.13;;;11.30;99.90;;;;;;5059756;28;20035;-75
2022/03/03 09:19:36;;;;;;;12.18;7.35;;;11.40;99.90;;;;;;5077334;28;20028;-74
2022/03/03 09:22:03;;;;;;;13.15;6.47;;;11.50;99.90;;;;;;5071020;28;20017;-74
2022/03/03 09:24:29;;;;;;;12.90;7.03;;;11.60;99.90;;;;;;5077998;28;20027;-74
2022/03/03 09:26:55;;;;;;;10.13;6.93;;;11.70;99.90;;;;;;5077916;28;20508;-74
2022/03/03 09:29:22;;;;;;;8.93;5.78;;;11.80;99.90;;;;;;5078340;28;20024;-75
2022/03/03 09:31:49;;;;;;;7.65;6.65;;;11.80;99.90;;;;;;5059698;28;20029;-75
2022/03/03 09:34:15;;;;;;;10.38;6.45;;;11.60;99.90;;;;;;5069526;28;20453;-75
2022/03/03 09:36:41;;;;;;;10.93;7.65;;;11.40;99.90;;;;;;5076701;28;20028;-76
2022/03/03 09:39:07;;;;;;;9.35;6.10;;;11.50;99.90;;;;;;5077751;28;20679;-76
2022/03/03 09:41:32;;;;;;;8.05;6.38;;;11.40;99.90;;;;;;5077151;28;20021;-76
2022/03/03 09:43:58;;;;;;;18.35;10.45;;;11.60;99.90;;;;;;5078004;28;20039;-76
2022/03/03 09:46:25;;;;;;;11.73;7.22;;;11.70;99.90;;;;;;5059176;28;20213;-76
2022/03/03 09:48:51;;;;;;;11.63;7.53;;;11.80;99.90;;;;;;5078004;28;20396;-76
2022/03/03 09:51:17;;;;;;;17.63;13.15;;;12.00;99.90;;;;;;5077340;28;20016;-76
2022/03/03 09:53:44;;;;;;;11.68;9.45;;;12.10;99.90;;;;;;5059397;28;20033;-76
2022/03/03 09:56:09;;;;;;;8.63;6.78;;;12.10;99.90;;;;;;5059578;28;20643;-76
2022/03/03 09:58:36;;;;;;;11.32;6.07;;;12.20;99.90;;;;;;5059360;28;20502;-76
2022/03/03 10:01:03;;;;;;;10.70;7.03;;;12.20;99.90;;;;;;5059373;28;20131;-76
2022/03/03 10:03:33;;;;;;;7.78;6.32;;;12.40;99.90;;;;;;5059607;28;20025;-76
2022/03/03 10:06:00;;;;;;;;;;;12.40;99.90;;;;;;5077136;28;20436;-76
2022/03/03 10:08:28;;;;;;;9.55;6.07;;;12.20;99.90;;;;;;5076322;28;19908;-76
2022/03/03 10:10:55;;;;;;;10.05;6.10;;;12.20;99.90;;;;;;5059470;28;20115;-76
2022/03/03 10:13:21;;;;;;;11.80;7.18;;;12.10;99.90;;;;;;5077182;28;20031;-76
2022/03/03 10:15:56;;;;;;;11.75;7.07;;;12.20;99.90;;;;;;5076995;28;20021;-76
2022/03/03 10:18:23;;;;;;;6.70;6.00;;;12.40;99.90;;;;;;5059277;28;20086;-76
2022/03/03 10:20:49;;;;;;;12.38;6.95;;;12.40;99.90;;;;;;5076510;28;20036;-76
2022/03/03 10:23:16;;;;;;;11.95;6.50;;;12.50;99.90;;;;;;5077059;28;20082;-76
2022/03/03 10:25:44;;;;;;;11.90;6.10;;;12.70;99.90;;;;;;5077034;28;20036;-75
2022/03/03 10:28:19;;;;;;;8.30;6.13;;;12.90;99.90;;;;;;5058655;28;20025;-76
2022/03/03 10:31:00;;;;;;;9.73;6.07;;;13.20;99.90;;;;;;5077081;28;20040;-75
2022/03/03 10:33:47;;;;;;;8.43;6.80;;;13.40;99.90;;;;;;5058893;28;20017;-76
2022/03/03 10:36:24;;;;;;;9.13;6.38;;;13.20;99.90;;;;;;5058742;28;20040;-76
2022/03/03 10:38:56;;;;;;;10.75;6.55;;;13.10;99.90;;;;;;5055455;28;20452;-75
2022/03/03 10:41:46;;;;;;;8.75;6.95;;;12.90;99.90;;;;;;5055719;28;20508;-75
2022/03/03 10:44:22;;;;;;;9.07;7.20;;;12.60;99.90;;;;;;5056989;28;20053;-75
2022/03/03 10:47:05;;;;;;;9.80;7.32;;;12.40;99.90;;;;;;5056628;28;20493;-75
2022/03/03 10:49:32;;;;;;;12.43;7.30;;;12.10;99.90;;;;;;5055966;28;20021;-75
2022/03/03 10:52:18;;;;;;;7.78;6.95;;;12.00;99.90;;;;;;5056774;28;20025;-75
2022/03/03 10:55:06;;;;;;;9.60;6.72;;;12.00;99.90;;;;;;5056652;28;20033;-75
2022/03/03 10:58:00;;;;;;;13.40;8.00;;;11.90;99.90;;;;;;5055198;28;20115;-75
2022/03/03 11:00:30;;;;;;;11.45;7.20;;;11.80;99.90;;;;;;5054211;28;20087;-75
2022/03/03 11:02:58;;;;;;;11.05;7.82;;;11.80;99.90;;;;;;5059070;28;20025;-76
2022/03/03 11:05:27;;;;;;;14.15;8.57;;;11.80;99.90;;;;;;5060720;28;20036;-76
2022/03/03 11:07:53;;;;;;;10.40;7.57;;;11.80;99.90;;;;;;5060448;28;20029;-76
2022/03/03 11:10:21;;;;;;;10.25;7.78;;;11.80;99.90;;;;;;5059655;28;20486;-76
2022/03/03 11:12:48;;;;;;;8.43;7.53;;;11.90;99.90;;;;;;5058576;28;20040;-76
2022/03/03 11:15:19;;;;;;;8.40;7.22;;;11.90;99.90;;;;;;5060408;28;20190;-76
2022/03/03 11:17:46;;;;;;;11.20;7.38;;;12.00;99.90;;;;;;5060335;28;20563;-76
2022/03/03 11:20:15;;;;;;;10.68;7.55;;;12.00;99.90;;;;;;5060264;28;20511;-76
2022/03/03 11:22:42;;;;;;;10.45;8.00;;;12.00;99.90;;;;;;5060298;28;20017;-76
2022/03/03 11:25:12;;;;;;;20.25;7.88;;;12.00;99.90;;;;;;5060025;28;20048;-76
2022/03/03 11:27:41;;;;;;;9.30;7.87;;;12.10;99.90;;;;;;5045772;28;20033;-76
2022/03/03 11:30:27;;;;;;;12.35;8.05;;;12.10;99.90;;;;;;5059213;28;20029;-76
2022/03/03 11:33:21;;;;;;;8.27;7.38;;;12.10;99.90;;;;;;5058962;28;20539;-76
2022/03/03 11:35:50;;;;;;;11.30;7.50;;;12.30;99.90;;;;;;5048659;28;20018;-77
2022/03/03 11:38:17;;;;;;;9.73;8.07;;;12.40;99.90;;;;;;5065325;28;20071;-76
2022/03/03 11:40:58;;;;;;;9.32;6.90;;;12.40;99.90;;;;;;5061987;28;20028;-77
2022/03/03 11:43:25;;;;;;;8.38;7.18;;;12.50;99.90;;;;;;5079578;28;20469;-77
2022/03/03 11:45:56;;;;;;;8.80;7.35;;;12.50;99.90;;;;;;5079044;28;20042;-77
2022/03/03 11:48:23;;;;;;;9.98;6.68;;;12.60;99.90;;;;;;5079352;28;20056;-77
2022/03/03 11:50:52;;;;;;;10.98;6.88;;;12.60;99.90;;;;;;5079113;28;20048;-78
2022/03/03 11:53:25;;;;;;;8.88;6.88;;;12.80;99.90;;;;;;5078283;28;20056;-77
2022/03/03 11:56:03;;;;;;;10.35;7.43;;;12.90;99.90;;;;;;5060486;28;20051;-76
2022/03/03 11:58:31;;;;;;;9.50;6.22;;;12.90;99.90;;;;;;5079183;28;20024;-77
2022/03/03 12:01:02;;;;;;;12.68;7.05;;;13.00;99.90;;;;;;5061503;28;20111;-78
2022/03/03 12:03:31;;;;;;;11.35;6.07;;;13.10;99.90;;;;;;5078981;28;20023;-77
2022/03/03 12:06:14;;;;;;;9.27;7.38;;;13.10;99.90;;;;;;5061338;28;20067;-77
2022/03/03 12:08:42;;;;;;;9.27;6.07;;;13.10;99.90;;;;;;5061475;28;20111;-77
2022/03/03 12:11:10;;;;;;;10.55;6.55;;;13.10;99.90;;;;;;5060685;28;20028;-76
2022/03/03 12:13:40;;;;;;;10.80;7.53;;;13.20;99.90;;;;;;5060297;28;20027;-76
2022/03/03 12:16:25;;;;;;;9.75;7.22;;;13.20;99.90;;;;;;5060637;28;20036;-76
2022/03/03 12:18:57;;;;;;;13.57;7.05;;;13.20;99.90;;;;;;5079352;28;20020;-76
2022/03/03 12:21:24;;;;;;;13.85;7.53;;;13.30;99.90;;;;;;5078786;28;20084;-76
2022/03/03 12:23:50;;;;;;;14.20;6.72;;;13.30;99.90;;;;;;5061239;28;20033;-76
2022/03/03 12:26:16;;;;;;;8.38;6.88;;;13.30;99.90;;;;;;5077326;28;20023;-76
2022/03/03 12:28:47;;;;;;;8.40;6.55;;;13.40;99.90;;;;;;5060925;28;20025;-76
2022/03/03 12:31:40;;;;;;;7.75;6.18;;;13.40;99.90;;;;;;5079320;28;20024;-76
2022/03/03 12:34:07;;;;;;;9.65;6.13;;;13.50;99.90;;;;;;5060063;28;20021;-76
2022/03/03 12:36:36;;;;;;;6.15;5.13;;;13.50;99.90;;;;;;5078200;28;20024;-76
2022/03/03 12:39:06;;;;;;;6.78;5.72;;;13.60;99.90;;;;;;5061026;28;20048;-76
2022/03/03 12:41:34;;;;;;;10.70;6.25;;;13.50;99.90;;;;;;5078732;28;20031;-77
2022/03/03 12:44:28;;;;;;;12.05;5.80;;;13.60;99.90;;;;;;5078919;28;20028;-76